createdAt,value
2023-03-06T00:00:33.216Z,-8.16
2023-03-06T00:01:33.219Z,-8.14
2023-03-06T00:02:33.178Z,-8.17
2023-03-06T00:03:33.183Z,-8.17
2023-03-06T00:04:33.165Z,-8.17
2023-03-06T00:05:33.183Z,-8.17
2023-03-06T00:06:33.210Z,-8.19
2023-03-06T00:07:33.164Z,-8.19
2023-03-06T00:08:33.791Z,-8.19
2023-03-06T00:09:33.102Z,-8.19
2023-03-06T00:10:33.111Z,-8.16
2023-03-06T00:11:33.107Z,-8.16
2023-03-06T00:12:33.159Z,-8.17
2023-03-06T00:13:33.081Z,-8.16
2023-03-06T00:14:33.054Z,-8.19
2023-03-06T00:15:33.046Z,-8.23
2023-03-06T00:16:33.089Z,-8.24
2023-03-06T00:17:33.051Z,-8.24
2023-03-06T00:18:33.037Z,-8.24
2023-03-06T00:19:33.083Z,-8.23
2023-03-06T00:20:33.009Z,-8.20
2023-03-06T00:21:32.991Z,-8.21
2023-03-06T00:22:32.963Z,-8.20
2023-03-06T00:23:32.984Z,-8.20
2023-03-06T00:24:33.028Z,-8.19
2023-03-06T00:25:32.946Z,-8.20
2023-03-06T00:26:32.945Z,-8.20
2023-03-06T00:27:32.945Z,-8.21
2023-03-06T00:28:32.964Z,-8.21
2023-03-06T00:29:32.893Z,-8.21
2023-03-06T00:30:33.147Z,-8.21
2023-03-06T00:31:32.944Z,-8.19
2023-03-06T00:32:32.938Z,-8.19
2023-03-06T00:33:32.949Z,-8.21
2023-03-06T00:34:32.841Z,-8.20
2023-03-06T00:35:32.963Z,-8.20
2023-03-06T00:36:32.828Z,-8.21
2023-03-06T00:37:32.826Z,-8.21
2023-03-06T00:38:32.938Z,-8.19
2023-03-06T00:39:33.021Z,-8.17
2023-03-06T00:40:32.828Z,-8.16
2023-03-06T00:41:32.767Z,-8.16
2023-03-06T00:42:32.794Z,-8.16
2023-03-06T00:43:32.747Z,-8.16
2023-03-06T00:44:32.781Z,-8.14
2023-03-06T00:45:32.802Z,-8.16
2023-03-06T00:46:32.716Z,-8.14
2023-03-06T00:47:32.788Z,-8.14
2023-03-06T00:48:32.861Z,-8.13
2023-03-06T00:49:32.683Z,-8.16
2023-03-06T00:50:32.693Z,-8.16
2023-03-06T00:51:32.679Z,-8.16
2023-03-06T00:52:32.700Z,-8.19
2023-03-06T00:53:32.623Z,-8.20
2023-03-06T00:54:32.751Z,-8.21
2023-03-06T00:55:32.632Z,-8.23
2023-03-06T00:56:32.616Z,-8.21
2023-03-06T00:57:32.584Z,-8.23
2023-03-06T00:58:32.598Z,-8.21
2023-03-06T00:59:32.652Z,-8.23
2023-03-06T01:00:32.602Z,-8.26
2023-03-06T01:01:32.554Z,-8.24
2023-03-06T01:02:32.762Z,-8.24
2023-03-06T01:03:32.625Z,-8.23
2023-03-06T01:04:32.619Z,-8.24
2023-03-06T01:05:32.579Z,-8.23
2023-03-06T01:06:32.612Z,-8.26
2023-03-06T01:07:32.528Z,-8.24
2023-03-06T01:08:32.488Z,-8.21
2023-03-06T01:09:32.498Z,-8.21
2023-03-06T01:10:32.458Z,-8.23
2023-03-06T01:11:32.439Z,-8.23
2023-03-06T01:12:32.424Z,-8.23
2023-03-06T01:13:32.479Z,-8.23
2023-03-06T01:14:32.571Z,-8.21
2023-03-06T01:15:32.419Z,-8.20
2023-03-06T01:16:32.675Z,-8.20
2023-03-06T01:17:32.410Z,-8.17
2023-03-06T01:18:32.421Z,-8.19
2023-03-06T01:19:33.323Z,-8.19
2023-03-06T01:20:32.350Z,-8.23
2023-03-06T01:21:32.354Z,-8.21
2023-03-06T01:22:32.335Z,-8.21
2023-03-06T01:23:32.333Z,-8.24
2023-03-06T01:24:32.315Z,-8.24
2023-03-06T01:25:32.298Z,-8.26
2023-03-06T01:26:32.437Z,-8.24
2023-03-06T01:27:32.299Z,-8.23
2023-03-06T01:28:32.265Z,-8.20
2023-03-06T01:29:32.263Z,-8.20
2023-03-06T01:30:32.509Z,-8.21
2023-03-06T01:31:32.330Z,-8.17
2023-03-06T01:32:32.306Z,-8.16
2023-03-06T01:33:32.504Z,-8.13
2023-03-06T01:34:32.265Z,-8.10
2023-03-06T01:35:32.317Z,-8.10
2023-03-06T01:36:32.296Z,-8.10
2023-03-06T01:37:32.201Z,-8.13
2023-03-06T01:38:32.497Z,-8.13
2023-03-06T01:39:32.239Z,-8.14
2023-03-06T01:40:32.170Z,-8.17
2023-03-06T01:41:32.115Z,-8.20
2023-03-06T01:42:32.295Z,-8.20
2023-03-06T01:43:32.105Z,-8.23
2023-03-06T01:44:32.115Z,-8.27
2023-03-06T01:45:32.161Z,-8.29
2023-03-06T01:46:32.077Z,-8.31
2023-03-06T01:47:32.059Z,-8.34
2023-03-06T01:48:32.049Z,-8.35
2023-03-06T01:49:32.076Z,-8.35
2023-03-06T01:50:32.056Z,-8.39
2023-03-06T01:51:32.027Z,-8.38
2023-03-06T01:52:32.012Z,-8.41
2023-03-06T01:53:31.989Z,-8.42
2023-03-06T01:54:31.981Z,-8.44
2023-03-06T01:55:31.966Z,-8.44
2023-03-06T01:56:32.010Z,-8.47
2023-03-06T01:57:31.954Z,-8.47
2023-03-06T01:58:31.954Z,-8.45
2023-03-06T01:59:31.970Z,-8.48
2023-03-06T02:00:31.918Z,-8.47
2023-03-06T02:01:31.971Z,-8.48
2023-03-06T02:02:31.996Z,-8.50
2023-03-06T02:03:31.904Z,-8.48
2023-03-06T02:04:31.891Z,-8.48
2023-03-06T02:05:31.854Z,-8.48
2023-03-06T02:06:31.858Z,-8.48
2023-03-06T02:07:31.854Z,-8.48
2023-03-06T02:08:31.862Z,-8.45
2023-03-06T02:09:31.841Z,-8.45
2023-03-06T02:10:31.815Z,-8.47
2023-03-06T02:11:31.822Z,-8.42
2023-03-06T02:12:31.797Z,-8.42
2023-03-06T02:13:31.811Z,-8.41
2023-03-06T02:14:31.778Z,-8.44
2023-03-06T02:15:31.778Z,-8.45
2023-03-06T02:16:31.902Z,-8.44
2023-03-06T02:17:31.757Z,-8.42
2023-03-06T02:18:31.764Z,-8.42
2023-03-06T02:19:31.720Z,-8.39
2023-03-06T02:20:31.711Z,-8.41
2023-03-06T02:21:31.698Z,-8.39
2023-03-06T02:22:32.494Z,-8.38
2023-03-06T02:23:31.705Z,-8.38
2023-03-06T02:24:31.674Z,-8.39
2023-03-06T02:25:31.671Z,-8.38
2023-03-06T02:26:31.659Z,-8.39
2023-03-06T02:27:31.642Z,-8.38
2023-03-06T02:28:31.636Z,-8.39
2023-03-06T02:29:31.639Z,-8.39
2023-03-06T02:30:31.605Z,-8.39
2023-03-06T02:31:31.613Z,-8.41
2023-03-06T02:32:31.643Z,-8.41
2023-03-06T02:33:31.579Z,-8.39
2023-03-06T02:34:31.568Z,-8.38
2023-03-06T02:35:31.595Z,-8.37
2023-03-06T02:36:31.536Z,-8.38
2023-03-06T02:37:31.540Z,-8.38
2023-03-06T02:38:31.553Z,-8.39
2023-03-06T02:39:31.548Z,-8.39
2023-03-06T02:40:31.492Z,-8.38
2023-03-06T02:41:31.487Z,-8.37
2023-03-06T02:42:31.496Z,-8.37
2023-03-06T02:43:31.477Z,-8.38
2023-03-06T02:44:31.466Z,-8.39
2023-03-06T02:45:31.511Z,-8.41
2023-03-06T02:46:31.511Z,-8.42
2023-03-06T02:47:31.430Z,-8.41
2023-03-06T02:48:31.450Z,-8.39
2023-03-06T02:49:31.399Z,-8.39
2023-03-06T02:50:31.468Z,-8.38
2023-03-06T02:51:31.402Z,-8.38
2023-03-06T02:52:31.368Z,-8.35
2023-03-06T02:53:31.368Z,-8.38
2023-03-06T02:54:31.363Z,-8.38
2023-03-06T02:55:31.331Z,-8.39
2023-03-06T02:56:31.352Z,-8.38
2023-03-06T02:57:31.324Z,-8.38
2023-03-06T02:58:31.313Z,-8.37
2023-03-06T02:59:31.301Z,-8.37
2023-03-06T03:00:31.270Z,-8.37
2023-03-06T03:01:31.352Z,-8.34
2023-03-06T03:02:31.263Z,-8.32
2023-03-06T03:03:31.268Z,-8.32
2023-03-06T03:04:31.252Z,-8.31
2023-03-06T03:05:31.259Z,-8.32
2023-03-06T03:06:31.240Z,-8.31
2023-03-06T03:07:31.210Z,-8.31
2023-03-06T03:08:31.198Z,-8.31
2023-03-06T03:09:31.182Z,-8.31
2023-03-06T03:10:31.169Z,-8.29
2023-03-06T03:11:31.192Z,-8.31
2023-03-06T03:12:31.145Z,-8.32
2023-03-06T03:13:31.169Z,-8.32
2023-03-06T03:14:31.145Z,-8.32
2023-03-06T03:15:31.132Z,-8.32
2023-03-06T03:16:31.139Z,-8.32
2023-03-06T03:17:31.127Z,-8.31
2023-03-06T03:18:31.092Z,-8.34
2023-03-06T03:19:31.079Z,-8.32
2023-03-06T03:20:31.128Z,-8.32
2023-03-06T03:21:31.067Z,-8.31
2023-03-06T03:22:31.072Z,-8.29
2023-03-06T03:23:31.038Z,-8.32
2023-03-06T03:24:31.051Z,-8.31
2023-03-06T03:25:31.026Z,-8.31
2023-03-06T03:26:31.032Z,-8.32
2023-03-06T03:27:31.002Z,-8.31
2023-03-06T03:28:30.969Z,-8.29
2023-03-06T03:29:30.961Z,-8.29
2023-03-06T03:30:30.964Z,-8.29
2023-03-06T03:31:31.032Z,-8.31
2023-03-06T03:32:30.995Z,-8.29
2023-03-06T03:33:30.942Z,-8.27
2023-03-06T03:34:30.924Z,-8.29
2023-03-06T03:35:30.921Z,-8.31
2023-03-06T03:36:30.901Z,-8.29
2023-03-06T03:37:30.915Z,-8.29
2023-03-06T03:38:30.879Z,-8.27
2023-03-06T03:39:30.893Z,-8.27
2023-03-06T03:40:30.894Z,-8.27
2023-03-06T03:41:30.853Z,-8.26
2023-03-06T03:42:30.842Z,-8.26
2023-03-06T03:43:30.827Z,-8.27
2023-03-06T03:44:30.841Z,-8.26
2023-03-06T03:45:30.799Z,-8.26
2023-03-06T03:46:30.817Z,-8.29
2023-03-06T03:47:30.797Z,-8.29
2023-03-06T03:48:30.781Z,-8.27
2023-03-06T03:49:30.805Z,-8.29
2023-03-06T03:50:30.742Z,-8.29
2023-03-06T03:51:30.756Z,-8.27
2023-03-06T03:52:30.718Z,-8.29
2023-03-06T03:53:30.733Z,-8.29
2023-03-06T03:54:30.720Z,-8.31
2023-03-06T03:55:30.694Z,-8.31
2023-03-06T03:56:30.697Z,-8.29
2023-03-06T03:57:30.682Z,-8.29
2023-03-06T03:58:30.674Z,-8.34
2023-03-06T03:59:30.695Z,-8.29
2023-03-06T04:00:30.633Z,-8.27
2023-03-06T04:01:30.669Z,-8.31
2023-03-06T04:02:30.624Z,-8.29
2023-03-06T04:03:30.618Z,-8.32
2023-03-06T04:04:30.636Z,-8.32
2023-03-06T04:05:30.599Z,-8.34
2023-03-06T04:06:30.590Z,-8.35
2023-03-06T04:07:30.590Z,-8.37
2023-03-06T04:08:30.552Z,-8.35
2023-03-06T04:09:30.534Z,-8.35
2023-03-06T04:10:30.546Z,-8.38
2023-03-06T04:11:30.531Z,-8.35
2023-03-06T04:12:30.520Z,-8.37
2023-03-06T04:13:30.506Z,-8.38
2023-03-06T04:14:30.551Z,-8.38
2023-03-06T04:15:30.500Z,-8.38
2023-03-06T04:16:30.555Z,-8.37
2023-03-06T04:17:30.457Z,-8.37
2023-03-06T04:18:30.451Z,-8.37
2023-03-06T04:19:30.439Z,-8.37
2023-03-06T04:20:30.472Z,-8.35
2023-03-06T04:21:30.433Z,-8.38
2023-03-06T04:22:30.409Z,-8.37
2023-03-06T04:23:30.407Z,-8.35
2023-03-06T04:24:30.382Z,-8.35
2023-03-06T04:25:30.407Z,-8.37
2023-03-06T04:26:30.389Z,-8.37
2023-03-06T04:27:30.363Z,-8.37
2023-03-06T04:28:30.354Z,-8.37
2023-03-06T04:29:30.345Z,-8.39
2023-03-06T04:30:30.331Z,-8.41
2023-03-06T04:31:30.377Z,-8.39
2023-03-06T04:32:30.427Z,-8.42
2023-03-06T04:33:30.306Z,-8.42
2023-03-06T04:34:30.279Z,-8.41
2023-03-06T04:35:30.280Z,-8.42
2023-03-06T04:36:30.268Z,-8.44
2023-03-06T04:37:30.335Z,-8.44
2023-03-06T04:38:30.235Z,-8.47
2023-03-06T04:39:30.264Z,-8.45
2023-03-06T04:40:30.220Z,-8.45
2023-03-06T04:41:30.231Z,-8.50
2023-03-06T04:42:30.199Z,-8.45
2023-03-06T04:43:30.182Z,-8.45
2023-03-06T04:44:30.196Z,-8.50
2023-03-06T04:45:30.202Z,-8.52
2023-03-06T04:46:30.160Z,-8.50
2023-03-06T04:47:30.146Z,-8.50
2023-03-06T04:48:30.129Z,-8.50
2023-03-06T04:49:30.165Z,-8.52
2023-03-06T04:50:30.130Z,-8.50
2023-03-06T04:51:30.108Z,-8.50
2023-03-06T04:52:30.092Z,-8.48
2023-03-06T04:53:30.082Z,-8.48
2023-03-06T04:54:30.068Z,-8.50
2023-03-06T04:55:30.078Z,-8.52
2023-03-06T04:56:30.044Z,-8.50
2023-03-06T04:57:30.037Z,-8.55
2023-03-06T04:58:30.045Z,-8.56
2023-03-06T04:59:30.027Z,-8.58
2023-03-06T05:00:30.119Z,-8.58
2023-03-06T05:01:30.000Z,-8.56
2023-03-06T05:02:30.037Z,-8.58
2023-03-06T05:03:29.977Z,-8.58
2023-03-06T05:04:29.976Z,-8.58
2023-03-06T05:05:30.059Z,-8.62
2023-03-06T05:06:29.963Z,-8.63
2023-03-06T05:07:29.928Z,-8.63
2023-03-06T05:08:29.929Z,-8.62
2023-03-06T05:09:29.913Z,-8.65
2023-03-06T05:10:29.890Z,-8.66
2023-03-06T05:11:29.910Z,-8.66
2023-03-06T05:12:29.882Z,-8.66
2023-03-06T05:13:29.862Z,-8.70
2023-03-06T05:14:29.849Z,-8.71
2023-03-06T05:15:29.844Z,-8.71
2023-03-06T05:16:29.869Z,-8.74
2023-03-06T05:17:29.850Z,-8.73
2023-03-06T05:18:29.814Z,-8.76
2023-03-06T05:19:29.802Z,-8.76
2023-03-06T05:20:29.784Z,-8.80
2023-03-06T05:21:29.810Z,-8.81
2023-03-06T05:22:29.767Z,-8.83
2023-03-06T05:23:29.770Z,-8.86
2023-03-06T05:24:29.747Z,-8.88
2023-03-06T05:25:29.753Z,-8.89
2023-03-06T05:26:29.750Z,-8.92
2023-03-06T05:27:29.733Z,-8.95
2023-03-06T05:28:29.752Z,-8.97
2023-03-06T05:29:29.706Z,-8.98
2023-03-06T05:30:29.695Z,-9.02
2023-03-06T05:31:29.717Z,-9.08
2023-03-06T05:32:29.710Z,-9.08
2023-03-06T05:33:29.688Z,-9.10
2023-03-06T05:34:29.639Z,-9.15
2023-03-06T05:35:29.690Z,-9.15
2023-03-06T05:36:29.627Z,-9.15
2023-03-06T05:37:29.614Z,-9.16
2023-03-06T05:38:29.627Z,-9.18
2023-03-06T05:39:29.581Z,-9.20
2023-03-06T05:40:29.575Z,-9.22
2023-03-06T05:41:29.579Z,-9.26
2023-03-06T05:42:29.592Z,-9.26
2023-03-06T05:43:29.564Z,-9.27
2023-03-06T05:44:29.570Z,-9.28
2023-03-06T05:45:29.523Z,-9.28
2023-03-06T05:46:29.514Z,-9.27
2023-03-06T05:47:29.605Z,-9.30
2023-03-06T05:48:29.501Z,-9.28
2023-03-06T05:49:29.494Z,-9.28
2023-03-06T05:50:29.497Z,-9.28
2023-03-06T05:51:29.499Z,-9.26
2023-03-06T05:52:29.462Z,-9.27
2023-03-06T05:53:29.452Z,-9.23
2023-03-06T05:54:29.442Z,-9.26
2023-03-06T05:55:29.429Z,-9.27
2023-03-06T05:56:29.435Z,-9.28
2023-03-06T05:57:29.434Z,-9.28
2023-03-06T05:58:29.397Z,-9.28
2023-03-06T05:59:29.392Z,-9.31
2023-03-06T06:00:29.374Z,-9.34
2023-03-06T06:01:29.397Z,-9.34
2023-03-06T06:02:29.424Z,-9.34
2023-03-06T06:03:29.373Z,-9.36
2023-03-06T06:04:29.405Z,-9.36
2023-03-06T06:05:29.315Z,-9.38
2023-03-06T06:06:29.335Z,-9.38
2023-03-06T06:07:29.314Z,-9.41
2023-03-06T06:08:29.311Z,-9.41
2023-03-06T06:09:29.311Z,-9.46
2023-03-06T06:10:29.252Z,-9.45
2023-03-06T06:11:29.267Z,-9.41
2023-03-06T06:12:29.258Z,-9.40
2023-03-06T06:13:29.294Z,-9.41
2023-03-06T06:14:29.235Z,-9.40
2023-03-06T06:15:29.233Z,-9.40
2023-03-06T06:16:29.201Z,-9.37
2023-03-06T06:17:29.292Z,-9.36
2023-03-06T06:18:29.654Z,-9.36
2023-03-06T06:19:30.179Z,-9.36
2023-03-06T06:20:29.996Z,-9.33
2023-03-06T06:21:29.155Z,-9.33
2023-03-06T06:22:29.172Z,-9.31
2023-03-06T06:23:30.132Z,-9.33
2023-03-06T06:24:29.175Z,-9.31
2023-03-06T06:25:29.121Z,-9.30
2023-03-06T06:26:29.089Z,-9.34
2023-03-06T06:27:29.085Z,-9.34
2023-03-06T06:28:29.096Z,-9.37
2023-03-06T06:29:29.085Z,-9.34
2023-03-06T06:30:29.049Z,-9.37
2023-03-06T06:31:29.106Z,-9.37
2023-03-06T06:32:29.110Z,-9.37
2023-03-06T06:33:29.026Z,-9.36
2023-03-06T06:34:29.048Z,-9.38
2023-03-06T06:35:29.048Z,-9.37
2023-03-06T06:36:28.991Z,-9.40
2023-03-06T06:37:28.985Z,-9.41
2023-03-06T06:38:29.852Z,-9.41
2023-03-06T06:39:29.002Z,-9.46
2023-03-06T06:40:28.946Z,-9.49
2023-03-06T06:41:54.989Z,-9.52
2023-03-06T06:42:34.601Z,-9.55
2023-03-06T06:43:28.921Z,-9.55
2023-03-06T06:44:28.923Z,-9.53
2023-03-06T06:45:28.927Z,-9.52
2023-03-06T06:47:28.987Z,-9.52
2023-03-06T06:48:28.876Z,-9.53
2023-03-06T06:49:28.851Z,-9.52
2023-03-06T06:50:28.857Z,-9.52
2023-03-06T06:51:28.829Z,-9.59
2023-03-06T06:52:29.656Z,-9.58
2023-03-06T06:53:28.830Z,-9.56
2023-03-06T06:54:28.839Z,-9.58
2023-03-06T06:55:28.796Z,-9.53
2023-03-06T06:56:28.787Z,-9.49
2023-03-06T06:57:28.782Z,-9.49
2023-03-06T06:58:28.758Z,-9.41
2023-03-06T06:59:28.746Z,-9.37
2023-03-06T07:00:28.852Z,-9.38
2023-03-06T07:01:28.785Z,-9.36
2023-03-06T07:02:28.752Z,-9.33
2023-03-06T07:03:28.727Z,-9.30
2023-03-06T07:04:28.694Z,-9.28
2023-03-06T07:05:28.706Z,-9.26
2023-03-06T07:06:28.673Z,-9.26
2023-03-06T07:07:28.680Z,-9.26
2023-03-06T07:08:28.668Z,-9.22
2023-03-06T07:09:28.650Z,-9.16
2023-03-06T07:10:28.716Z,-9.18
2023-03-06T07:11:28.638Z,-9.16
2023-03-06T07:12:28.630Z,-9.13
2023-03-06T07:13:28.608Z,-9.15
2023-03-06T07:14:28.605Z,-9.16
2023-03-06T07:15:28.633Z,-9.18
2023-03-06T07:16:28.578Z,-9.16
2023-03-06T07:17:28.575Z,-9.12
2023-03-06T07:18:28.537Z,-9.08
2023-03-06T07:19:28.537Z,-9.01
2023-03-06T07:20:28.537Z,-8.94
2023-03-06T07:21:28.533Z,-8.88
2023-03-06T07:22:31.927Z,-8.88
2023-03-06T07:23:28.546Z,-8.84
2023-03-06T07:24:28.492Z,-8.83
2023-03-06T07:25:28.476Z,-8.76
2023-03-06T07:26:28.470Z,-8.80
2023-03-06T07:27:28.680Z,-8.78
2023-03-06T07:28:28.477Z,-8.74
2023-03-06T07:29:28.432Z,-8.74
2023-03-06T07:30:28.489Z,-8.73
2023-03-06T07:31:28.544Z,-8.70
2023-03-06T07:32:28.449Z,-8.71
2023-03-06T07:33:28.412Z,-8.76
2023-03-06T07:34:28.414Z,-8.71
2023-03-06T07:35:28.392Z,-8.70
2023-03-06T07:36:28.359Z,-8.66
2023-03-06T07:37:28.346Z,-8.70
2023-03-06T07:38:28.367Z,-8.65
2023-03-06T07:39:28.340Z,-8.63
2023-03-06T07:40:28.309Z,-8.58
2023-03-06T07:41:28.308Z,-8.58
2023-03-06T07:42:28.339Z,-8.52
2023-03-06T07:43:28.383Z,-8.58
2023-03-06T07:44:28.280Z,-8.52
2023-03-06T07:45:28.285Z,-8.52
2023-03-06T07:46:28.459Z,-8.48
2023-03-06T07:47:28.240Z,-8.48
2023-03-06T07:48:28.234Z,-8.52
2023-03-06T07:49:28.223Z,-8.47
2023-03-06T07:50:28.235Z,-8.45
2023-03-06T07:51:28.223Z,-8.47
2023-03-06T07:52:28.186Z,-8.47
2023-03-06T07:53:28.192Z,-8.41
2023-03-06T07:54:28.184Z,-8.37
2023-03-06T07:55:28.171Z,-8.32
2023-03-06T07:56:28.184Z,-8.34
2023-03-06T07:57:28.143Z,-8.32
2023-03-06T07:58:28.147Z,-8.26
2023-03-06T07:59:28.116Z,-8.21
2023-03-06T08:00:28.105Z,-8.13
2023-03-06T08:01:28.113Z,-8.09
2023-03-06T08:02:28.120Z,-8.08
2023-03-06T08:03:28.124Z,-8.06
2023-03-06T08:04:29.139Z,-8.02
2023-03-06T08:05:28.079Z,-8.03
2023-03-06T08:06:28.040Z,-7.97
2023-03-06T08:07:28.036Z,-7.91
2023-03-06T08:08:28.015Z,-7.86
2023-03-06T08:09:28.037Z,-7.74
2023-03-06T08:10:28.008Z,-7.68
2023-03-06T08:11:28.002Z,-7.59
2023-03-06T08:12:28.010Z,-7.56
2023-03-06T08:13:27.979Z,-7.56
2023-03-06T08:14:28.015Z,-7.62
2023-03-06T08:15:27.950Z,-7.69
2023-03-06T08:16:27.954Z,-7.66
2023-03-06T08:17:27.927Z,-7.66
2023-03-06T08:18:27.914Z,-7.63
2023-03-06T08:19:27.924Z,-7.69
2023-03-06T08:20:27.922Z,-7.72
2023-03-06T08:21:27.866Z,-7.65
2023-03-06T08:22:27.868Z,-7.68
2023-03-06T08:23:27.894Z,-7.70
2023-03-06T08:24:27.836Z,-7.74
2023-03-06T08:25:27.856Z,-7.70
2023-03-06T08:26:27.854Z,-7.68
2023-03-06T08:27:27.822Z,-7.69
2023-03-06T08:28:27.807Z,-7.76
2023-03-06T08:29:27.816Z,-7.74
2023-03-06T08:30:27.768Z,-7.68
2023-03-06T08:31:27.901Z,-7.60
2023-03-06T08:32:27.875Z,-7.54
2023-03-06T08:33:27.821Z,-7.58
2023-03-06T08:34:27.736Z,-7.56
2023-03-06T08:35:27.737Z,-7.59
2023-03-06T08:36:27.924Z,-7.58
2023-03-06T08:37:27.874Z,-7.47
2023-03-06T08:38:28.271Z,-7.42
2023-03-06T08:39:27.692Z,-7.37
2023-03-06T08:40:27.667Z,-7.30
2023-03-06T08:41:27.689Z,-7.21
2023-03-06T08:42:27.678Z,-7.08
2023-03-06T08:43:27.767Z,-6.97
2023-03-06T08:44:27.650Z,-6.88
2023-03-06T08:45:27.643Z,-6.94
2023-03-06T08:46:27.636Z,-6.95
2023-03-06T08:47:27.607Z,-6.87
2023-03-06T08:48:27.611Z,-6.84
2023-03-06T08:49:27.585Z,-6.85
2023-03-06T08:50:27.572Z,-6.63
2023-03-06T08:51:27.551Z,-6.52
2023-03-06T08:52:27.539Z,-6.73
2023-03-06T08:53:41.640Z,-6.79
2023-03-06T08:54:27.524Z,-6.73
2023-03-06T08:55:27.541Z,-6.45
2023-03-06T08:56:27.530Z,-6.29
2023-03-06T08:57:27.490Z,-6.09
2023-03-06T08:58:27.498Z,-5.97
2023-03-06T08:59:27.511Z,-5.90
2023-03-06T09:00:27.511Z,-5.74
2023-03-06T09:01:27.517Z,-5.63
2023-03-06T09:02:27.486Z,-5.62
2023-03-06T09:03:27.431Z,-5.92
2023-03-06T09:04:27.397Z,-6.02
2023-03-06T09:05:27.418Z,-6.09
2023-03-06T09:06:27.390Z,-5.91
2023-03-06T09:07:28.224Z,-5.90
2023-03-06T09:08:27.394Z,-5.88
2023-03-06T09:09:27.362Z,-5.70
2023-03-06T09:10:27.385Z,-5.61
2023-03-06T09:11:27.337Z,-5.79
2023-03-06T09:12:29.274Z,-5.83
2023-03-06T09:13:27.420Z,-5.74
2023-03-06T09:14:27.302Z,-5.56
2023-03-06T09:15:27.307Z,-5.44
2023-03-06T09:16:27.362Z,-5.43
2023-03-06T09:17:27.359Z,-5.51
2023-03-06T09:18:27.250Z,-5.47
2023-03-06T09:19:27.255Z,-5.41
2023-03-06T09:20:27.229Z,-5.82
2023-03-06T09:21:27.223Z,-5.97
2023-03-06T09:22:27.235Z,-5.87
2023-03-06T09:23:27.234Z,-5.82
2023-03-06T09:24:27.193Z,-5.80
2023-03-06T09:25:27.175Z,-5.87
2023-03-06T09:26:39.671Z,-5.90
2023-03-06T09:27:27.170Z,-5.79
2023-03-06T09:28:27.757Z,-5.72
2023-03-06T09:29:27.143Z,-5.69
2023-03-06T09:30:27.127Z,-5.49
2023-03-06T09:31:27.134Z,-5.33
2023-03-06T09:32:27.154Z,-5.35
2023-03-06T09:33:27.095Z,-5.34
2023-03-06T09:34:27.111Z,-5.65
2023-03-06T09:35:27.306Z,-5.52
2023-03-06T09:36:27.058Z,-5.55
2023-03-06T09:37:27.112Z,-5.51
2023-03-06T09:38:27.078Z,-5.47
2023-03-06T09:39:27.086Z,-5.35
2023-03-06T09:40:27.621Z,-5.51
2023-03-06T09:41:27.124Z,-5.56
2023-03-06T09:42:27.019Z,-5.55
2023-03-06T09:43:26.985Z,-5.80
2023-03-06T09:44:27.017Z,-5.87
2023-03-06T09:45:26.959Z,-5.80
2023-03-06T09:46:27.030Z,-5.76
2023-03-06T09:47:27.132Z,-5.76
2023-03-06T09:48:26.943Z,-5.94
2023-03-06T09:49:26.928Z,-5.95
2023-03-06T09:50:26.940Z,-5.94
2023-03-06T09:51:26.910Z,-5.92
2023-03-06T09:52:26.900Z,-5.94
2023-03-06T09:53:26.889Z,-5.87
2023-03-06T09:54:26.873Z,-5.90
2023-03-06T09:55:26.885Z,-5.91
2023-03-06T09:56:26.848Z,-5.98
2023-03-06T09:57:26.846Z,-6.12
2023-03-06T09:58:26.819Z,-6.00
2023-03-06T09:59:26.804Z,-5.90
2023-03-06T10:00:26.854Z,-5.76
2023-03-06T10:01:26.833Z,-5.67
2023-03-06T10:02:26.959Z,-5.74
2023-03-06T10:03:26.820Z,-5.83
2023-03-06T10:04:26.748Z,-5.80
2023-03-06T10:05:26.776Z,-5.87
2023-03-06T10:06:26.751Z,-5.80
2023-03-06T10:07:26.746Z,-5.74
2023-03-06T10:08:26.724Z,-5.72
2023-03-06T10:09:26.708Z,-5.72
2023-03-06T10:10:26.708Z,-5.74
2023-03-06T10:11:26.676Z,-5.73
2023-03-06T10:12:26.699Z,-5.72
2023-03-06T10:13:26.667Z,-5.62
2023-03-06T10:14:27.278Z,-5.54
2023-03-06T10:15:26.695Z,-5.45
2023-03-06T10:16:26.696Z,-5.33
2023-03-06T10:17:26.612Z,-5.33
2023-03-06T10:18:26.609Z,-5.35
2023-03-06T10:19:26.707Z,-5.26
2023-03-06T10:20:26.650Z,-5.44
2023-03-06T10:21:26.743Z,-5.47
2023-03-06T10:22:26.567Z,-5.43
2023-03-06T10:23:26.606Z,-5.43
2023-03-06T10:24:26.556Z,-5.31
2023-03-06T10:25:26.562Z,-5.33
2023-03-06T10:26:26.696Z,-5.27
2023-03-06T10:27:26.517Z,-5.23
2023-03-06T10:28:26.510Z,-5.34
2023-03-06T10:29:26.486Z,-5.58
2023-03-06T10:30:26.630Z,-5.63
2023-03-06T10:31:26.612Z,-5.72
2023-03-06T10:32:29.038Z,-5.72
2023-03-06T10:33:26.565Z,-5.73
2023-03-06T10:34:26.482Z,-5.79
2023-03-06T10:35:28.641Z,-5.84
2023-03-06T10:36:27.201Z,-6.02
2023-03-06T10:37:26.442Z,-6.00
2023-03-06T10:38:26.432Z,-5.92
2023-03-06T10:39:26.411Z,-5.77
2023-03-06T10:40:27.360Z,-5.63
2023-03-06T10:41:27.345Z,-5.59
2023-03-06T10:42:28.827Z,-5.52
2023-03-06T10:43:26.343Z,-5.47
2023-03-06T10:44:26.339Z,-5.43
2023-03-06T10:45:26.328Z,-5.34
2023-03-06T10:46:26.454Z,-5.27
2023-03-06T10:47:26.299Z,-5.25
2023-03-06T10:48:26.309Z,-5.35
2023-03-06T10:49:26.282Z,-5.40
2023-03-06T10:50:26.277Z,-5.65
2023-03-06T10:51:26.260Z,-5.74
2023-03-06T10:52:26.299Z,-5.76
2023-03-06T10:53:26.239Z,-5.70
2023-03-06T10:54:26.261Z,-5.77
2023-03-06T10:55:26.204Z,-5.72
2023-03-06T10:56:26.203Z,-5.59
2023-03-06T10:57:26.193Z,-5.58
2023-03-06T10:58:26.173Z,-5.65
2023-03-06T10:59:26.663Z,-5.61
2023-03-06T11:00:26.211Z,-5.54
2023-03-06T11:01:26.163Z,-5.52
2023-03-06T11:02:26.144Z,-5.52
2023-03-06T11:03:26.142Z,-5.51
2023-03-06T11:04:26.870Z,-5.62
2023-03-06T11:05:26.748Z,-5.56
2023-03-06T11:06:26.107Z,-5.43
2023-03-06T11:07:26.192Z,-5.31
2023-03-06T11:08:26.063Z,-5.38
2023-03-06T11:09:26.074Z,-5.41
2023-03-06T11:10:26.045Z,-5.43
2023-03-06T11:11:37.091Z,-5.47
2023-03-06T11:12:26.061Z,-5.40
2023-03-06T11:13:26.013Z,-5.33
2023-03-06T11:14:27.706Z,-5.22
2023-03-06T11:15:26.022Z,-5.12
2023-03-06T11:16:26.197Z,-5.01
2023-03-06T11:17:25.963Z,-5.07
2023-03-06T11:18:25.988Z,-5.27
2023-03-06T11:19:25.947Z,-5.23
2023-03-06T11:20:25.950Z,-5.07
2023-03-06T11:21:26.204Z,-4.98
2023-03-06T11:22:26.826Z,-5.04
2023-03-06T11:23:25.925Z,-5.07
2023-03-06T11:24:25.907Z,-5.00
2023-03-06T11:25:25.884Z,-4.91
2023-03-06T11:26:25.917Z,-4.76
2023-03-06T11:27:25.877Z,-4.62
2023-03-06T11:28:25.851Z,-4.48
2023-03-06T11:29:25.950Z,-4.33
2023-03-06T11:30:25.832Z,-4.20
2023-03-06T11:31:25.910Z,-4.20
2023-03-06T11:32:25.948Z,-4.41
2023-03-06T11:33:25.786Z,-4.28
2023-03-06T11:34:25.804Z,-4.19
2023-03-06T11:35:25.827Z,-4.23
2023-03-06T11:36:25.787Z,-4.12
2023-03-06T11:37:25.779Z,-4.08
2023-03-06T11:38:25.754Z,-4.08
2023-03-06T11:39:25.722Z,-4.01
2023-03-06T11:40:25.722Z,-3.96
2023-03-06T11:41:25.749Z,-3.90
2023-03-06T11:42:25.733Z,-3.96
2023-03-06T11:43:25.682Z,-3.94
2023-03-06T11:44:25.695Z,-3.87
2023-03-06T11:45:25.663Z,-3.90
2023-03-06T11:46:25.723Z,-4.01
2023-03-06T11:47:25.639Z,-3.99
2023-03-06T11:48:25.631Z,-3.94
2023-03-06T11:49:25.630Z,-4.12
2023-03-06T11:50:25.684Z,-4.37
2023-03-06T11:51:25.602Z,-4.36
2023-03-06T11:52:25.582Z,-4.28
2023-03-06T11:53:25.610Z,-4.14
2023-03-06T11:54:25.574Z,-4.14
2023-03-06T11:55:25.548Z,-4.05
2023-03-06T11:56:25.655Z,-4.01
2023-03-06T11:57:25.557Z,-3.93
2023-03-06T11:58:25.917Z,-3.99
2023-03-06T11:59:25.536Z,-4.14
2023-03-06T12:00:26.329Z,-4.11
2023-03-06T12:01:25.491Z,-4.01
2023-03-06T12:02:25.585Z,-3.91
2023-03-06T12:03:26.729Z,-3.87
2023-03-06T12:04:25.664Z,-3.83
2023-03-06T12:05:25.499Z,-3.94
2023-03-06T12:06:25.461Z,-4.04
2023-03-06T12:07:25.439Z,-4.15
2023-03-06T12:08:25.405Z,-4.25
2023-03-06T12:09:25.402Z,-4.29
2023-03-06T12:10:25.429Z,-4.33
2023-03-06T12:11:25.388Z,-4.37
2023-03-06T12:12:25.381Z,-4.46
2023-03-06T12:14:25.358Z,-4.65
2023-03-06T12:15:25.341Z,-4.62
2023-03-06T12:16:25.390Z,-4.62
2023-03-06T12:17:25.303Z,-4.65
2023-03-06T12:18:25.389Z,-4.64
2023-03-06T12:19:25.327Z,-4.65
2023-03-06T12:20:25.473Z,-4.73
2023-03-06T12:21:25.380Z,-4.87
2023-03-06T12:22:25.254Z,-5.01
2023-03-06T12:23:25.303Z,-5.05
2023-03-06T12:24:25.229Z,-5.08
2023-03-06T12:25:25.219Z,-5.11
2023-03-06T12:26:27.414Z,-5.07
2023-03-06T12:27:25.218Z,-5.03
2023-03-06T12:28:25.222Z,-5.08
2023-03-06T12:29:25.889Z,-5.14
2023-03-06T12:30:25.173Z,-5.14
2023-03-06T12:31:25.206Z,-5.08
2023-03-06T12:32:25.312Z,-5.07
2023-03-06T12:33:25.131Z,-5.04
2023-03-06T12:34:25.166Z,-5.05
2023-03-06T12:35:25.189Z,-5.00
2023-03-06T12:36:25.096Z,-4.94
2023-03-06T12:37:25.299Z,-4.83
2023-03-06T12:38:25.108Z,-4.75
2023-03-06T12:39:25.064Z,-4.62
2023-03-06T12:40:25.252Z,-4.51
2023-03-06T12:41:25.126Z,-4.47
2023-03-06T12:42:25.076Z,-4.41
2023-03-06T12:43:25.034Z,-4.37
2023-03-06T12:44:25.032Z,-4.29
2023-03-06T12:45:25.014Z,-4.26
2023-03-06T12:46:25.129Z,-4.23
2023-03-06T12:47:24.977Z,-4.26
2023-03-06T12:48:25.035Z,-4.23
2023-03-06T12:49:31.953Z,-4.26
2023-03-06T12:50:24.980Z,-4.32
2023-03-06T12:51:28.006Z,-4.38
2023-03-06T12:52:30.248Z,-4.44
2023-03-06T12:53:26.071Z,-4.54
2023-03-06T12:54:26.349Z,-4.55